Harrisburg International Airport
KMDT : rendu visible

Aérodrome :











RETROUVEZ-NOUS SUR...

 
LOGIN :

S'inscrire | Disclaimer

   EN    FR    IT 

 









Légende :    VFR   VFR Marginal   IFR   IFR Intensif   IFR Très Intensif
Visi : 
Plafond : 
>= 8 km
>= 3000ft
5 à 8 km
1000 à 3000 ft
1500m à 5 km
500 à 1000 ft
800 à 1500m
200 à 500 ft
< 800m
< 200 ft
Symboles :   Orages  Brouillard  Fortes neiges  Fortes précipitations  Vent > 20 kt






- Altitude de l'aérodrome : 310 ft
- Code IATA : MDT


KMDT - Harrisburg International

DERNIER METAR :
  • 010756Z 23007KT 10SM BKN033 07/02 A2949 RMK AO2 SLP987 T00720022

METARs EXPIRÉS :
  • 010656Z 26006KT 10SM SCT055 SCT080 08/02 A2948 RMK AO2 SLP984 T00780017
  • 010556Z 26009KT 10SM BKN055 08/02 A2948 RMK AO2 SLP983 T00830017 10128 20083 50005

TAF KMDT
Valide du 01 à 06h jusqu'au 02 à 06h UTC


010557Z 0106/0206 27013KT P6SM BKN045
FM011100 27013G20KT P6SM BKN030
FM011400 27015G23KT P6SM OVC050
FIR KZNY / Amérique du Nord



MET'MAP, la Météo Aéronautique d'un coup d'oeil ! - Copyright ORBIFLY Décembre 2007 - Disclaimer

ORBIFLY MET'MAP TEAM :

Programmation & Développement : Alexandra Zaïnal
Sur une idée originale de : Baudouin d'Aumeries
Assistance à la programmation : Marc-Olivier Méhu
Soutien technique & logistique : Manuel Goepfert

Contact : metmap@orbifly.com




SOURCES & CREDITS :

   NOAA       Earth
Advisory